createdAt,value
2022-08-03T00:00:35.190Z,72.49
2022-08-03T00:03:05.058Z,72.95
2022-08-03T00:05:33.747Z,72.73
2022-08-03T00:08:01.834Z,72.26
2022-08-03T00:10:30.703Z,72.46
2022-08-03T00:12:58.838Z,72.10
2022-08-03T00:15:27.009Z,72.42
2022-08-03T00:17:55.152Z,72.57
2022-08-03T00:20:23.373Z,72.17
2022-08-03T00:22:51.818Z,71.66
2022-08-03T00:25:20.090Z,70.57
2022-08-03T00:27:48.515Z,71.17
2022-08-03T00:30:19.168Z,71.74
2022-08-03T00:32:48.122Z,71.62
2022-08-03T00:35:37.166Z,71.66
2022-08-03T00:38:05.959Z,72.53
2022-08-03T00:40:34.553Z,72.37
2022-08-03T00:43:06.358Z,72.81
2022-08-03T00:45:37.017Z,72.95
2022-08-03T00:48:32.838Z,72.35
2022-08-03T00:50:56.567Z,72.29
2022-08-03T00:53:25.264Z,72.14
2022-08-03T00:55:53.469Z,72.33
2022-08-03T00:58:21.652Z,72.25
2022-08-03T01:00:50.123Z,72.91
2022-08-03T01:03:18.222Z,73.50
2022-08-03T01:05:52.328Z,74.37
2022-08-03T01:08:37.608Z,74.04
2022-08-03T01:11:29.245Z,73.22
2022-08-03T01:14:19.341Z,72.53
2022-08-03T01:16:52.951Z,73.01
2022-08-03T01:19:33.293Z,73.78
2022-08-03T01:22:24.551Z,74.30
2022-08-03T01:25:10.572Z,74.35
2022-08-03T01:28:10.680Z,74.09
2022-08-03T01:30:43.957Z,74.40
2022-08-03T01:33:21.276Z,74.86
2022-08-03T01:36:02.422Z,74.64
2022-08-03T01:38:36.006Z,74.66
2022-08-03T01:41:08.882Z,74.91
2022-08-03T01:44:28.303Z,74.91
2022-08-03T01:46:30.060Z,74.85
2022-08-03T01:49:00.240Z,75.30
2022-08-03T01:51:56.667Z,75.51
2022-08-03T01:54:24.024Z,75.38
2022-08-03T01:56:55.075Z,76.13
2022-08-03T01:59:25.093Z,75.98
2022-08-03T02:02:16.101Z,76.01
2022-08-03T02:04:45.530Z,76.40
2022-08-03T02:07:15.827Z,77.44
2022-08-03T02:09:47.154Z,76.62
2022-08-03T02:12:17.840Z,76.58
2022-08-03T02:14:48.977Z,76.79
2022-08-03T02:17:19.326Z,77.53
2022-08-03T02:20:11.181Z,78.45
2022-08-03T02:22:44.678Z,79.35
2022-08-03T02:25:15.277Z,80.17
2022-08-03T02:27:51.906Z,79.89
2022-08-03T02:30:20.992Z,78.86
2022-08-03T02:32:56.172Z,77.59
2022-08-03T02:35:28.942Z,77.42
2022-08-03T02:38:02.797Z,78.85
2022-08-03T02:40:33.290Z,78.97
2022-08-03T02:43:09.543Z,78.93
2022-08-03T02:45:45.696Z,78.38
2022-08-03T02:48:19.069Z,77.81
2022-08-03T02:50:48.048Z,77.52
2022-08-03T02:53:18.374Z,77.45
2022-08-03T02:55:49.861Z,77.38
2022-08-03T02:58:22.949Z,77.46
2022-08-03T03:00:52.619Z,77.30
2022-08-03T03:03:22.363Z,77.08
2022-08-03T03:05:53.534Z,76.91
2022-08-03T03:08:26.724Z,77.14
2022-08-03T03:10:59.615Z,77.69
2022-08-03T03:13:30.518Z,77.67
2022-08-03T03:16:02.822Z,77.47
2022-08-03T03:18:33.490Z,77.72
2022-08-03T03:21:03.693Z,79.09
2022-08-03T03:23:36.227Z,78.43
2022-08-03T03:26:05.522Z,77.92
2022-08-03T03:28:37.124Z,77.92
2022-08-03T03:31:07.015Z,79.72
2022-08-03T03:33:36.114Z,81.25
2022-08-03T03:36:06.546Z,81.26
2022-08-03T03:38:35.156Z,80.86
2022-08-03T03:41:04.620Z,80.75
2022-08-03T03:43:33.264Z,80.71
2022-08-03T03:46:01.569Z,80.22
2022-08-03T03:48:29.825Z,80.35
2022-08-03T03:51:01.494Z,80.01
2022-08-03T03:53:29.785Z,80.06
2022-08-03T03:56:02.020Z,80.13
2022-08-03T03:58:32.903Z,80.04
2022-08-03T04:01:01.749Z,79.53
2022-08-03T04:03:30.335Z,78.69
2022-08-03T04:06:17.473Z,77.49
2022-08-03T04:09:04.749Z,76.47
2022-08-03T04:11:44.461Z,75.93
2022-08-03T04:14:18.224Z,74.69
2022-08-03T04:16:53.855Z,73.78
2022-08-03T04:19:37.921Z,73.24
2022-08-03T04:22:10.080Z,72.56
2022-08-03T04:24:55.850Z,71.80
2022-08-03T04:27:27.641Z,70.65
2022-08-03T04:29:57.629Z,69.87
2022-08-03T04:32:28.853Z,68.87
2022-08-03T04:34:57.449Z,68.10
2022-08-03T04:37:28.606Z,66.97
2022-08-03T04:40:01.952Z,67.66
2022-08-03T04:42:33.486Z,66.86
2022-08-03T04:45:04.401Z,65.64
2022-08-03T04:47:34.017Z,65.18
2022-08-03T04:50:04.942Z,64.38
2022-08-03T04:52:36.569Z,63.82
2022-08-03T04:55:05.319Z,62.50
2022-08-03T04:57:33.507Z,61.85
2022-08-03T05:00:03.602Z,61.57
2022-08-03T05:02:32.387Z,60.85
2022-08-03T05:05:01.096Z,60.29
2022-08-03T05:07:36.436Z,58.47
2022-08-03T05:10:15.966Z,57.81
2022-08-03T05:12:46.590Z,57.00
2022-08-03T05:15:15.354Z,55.93
2022-08-03T05:17:43.852Z,55.12
2022-08-03T05:20:12.330Z,54.68
2022-08-03T05:22:40.442Z,54.24
2022-08-03T05:25:08.869Z,49.89
2022-08-03T05:27:37.162Z,51.27
2022-08-03T05:30:31.225Z,51.60
2022-08-03T05:32:54.231Z,51.63
2022-08-03T05:35:57.524Z,51.31
2022-08-03T05:38:13.759Z,50.31
2022-08-03T05:40:57.535Z,50.09
2022-08-03T05:43:40.837Z,49.32
2022-08-03T05:46:12.074Z,47.79
2022-08-03T05:48:42.167Z,47.29
2022-08-03T05:51:11.955Z,46.01
2022-08-03T05:53:42.090Z,44.92
2022-08-03T05:56:14.730Z,43.90
2022-08-03T05:58:45.710Z,43.09
2022-08-03T06:01:14.405Z,41.97
2022-08-03T06:03:43.035Z,40.11
2022-08-03T06:06:11.862Z,40.07
2022-08-03T06:08:41.672Z,39.44
2022-08-03T06:11:10.342Z,39.43
2022-08-03T06:13:39.709Z,38.94
2022-08-03T06:16:08.306Z,38.90
2022-08-03T06:18:37.086Z,38.01
2022-08-03T06:21:14.378Z,38.03
2022-08-03T06:23:54.791Z,37.86
2022-08-03T06:26:28.038Z,37.84
2022-08-03T06:28:56.309Z,37.66
2022-08-03T06:31:33.425Z,36.91
2022-08-03T06:34:32.154Z,36.43
2022-08-03T06:36:58.435Z,36.17
2022-08-03T06:39:31.591Z,35.46
2022-08-03T06:41:59.862Z,34.84
2022-08-03T06:44:28.111Z,33.94
2022-08-03T06:46:56.494Z,33.60
2022-08-03T06:49:25.090Z,33.15
2022-08-03T06:52:04.224Z,32.92
2022-08-03T06:54:35.686Z,32.11
2022-08-03T06:57:04.918Z,31.78
2022-08-03T07:00:06.274Z,31.29
2022-08-03T07:02:21.414Z,31.21
2022-08-03T07:04:50.602Z,31.16
2022-08-03T07:07:19.540Z,30.75
2022-08-03T07:09:56.793Z,29.99
2022-08-03T07:12:27.787Z,30.02
2022-08-03T07:15:00.869Z,29.93
2022-08-03T07:17:31.285Z,29.46
2022-08-03T07:20:00.879Z,29.48
2022-08-03T07:22:29.161Z,28.83
2022-08-03T07:24:57.398Z,28.61
2022-08-03T07:27:27.265Z,28.39
2022-08-03T07:29:56.481Z,28.67
2022-08-03T07:32:25.594Z,28.86
2022-08-03T07:34:58.436Z,27.76
2022-08-03T07:37:29.778Z,26.72
2022-08-03T07:39:58.864Z,26.25
2022-08-03T07:42:28.285Z,26.51
2022-08-03T07:44:57.619Z,25.03
2022-08-03T07:47:35.090Z,25.44
2022-08-03T07:50:06.424Z,24.31
2022-08-03T07:52:53.779Z,21.97
2022-08-03T07:55:25.158Z,21.13
2022-08-03T07:58:05.591Z,21.72
2022-08-03T08:00:34.196Z,21.00
2022-08-03T08:03:03.212Z,21.78
2022-08-03T08:05:31.674Z,21.59
2022-08-03T08:08:01.845Z,22.17
2022-08-03T08:10:30.649Z,21.79
2022-08-03T08:12:58.930Z,20.89
2022-08-03T08:15:27.440Z,20.21
2022-08-03T08:18:00.003Z,20.45
2022-08-03T08:20:31.838Z,20.04
2022-08-03T08:23:02.857Z,20.94
2022-08-03T08:25:32.741Z,20.50
2022-08-03T08:28:29.285Z,20.67
2022-08-03T08:30:51.189Z,20.14
2022-08-03T08:33:23.075Z,19.14
2022-08-03T08:35:53.707Z,20.05
2022-08-03T08:38:23.582Z,20.02
2022-08-03T08:40:51.891Z,20.05
2022-08-03T08:43:20.123Z,19.74
2022-08-03T08:45:52.464Z,19.75
2022-08-03T08:48:24.783Z,19.48
2022-08-03T08:50:57.147Z,18.76
2022-08-03T08:53:28.984Z,18.86
2022-08-03T08:56:01.778Z,18.68
2022-08-03T08:58:34.996Z,18.25
2022-08-03T09:01:04.488Z,17.84
2022-08-03T09:03:35.817Z,17.93
2022-08-03T09:06:04.410Z,17.31
2022-08-03T09:08:33.265Z,17.81
2022-08-03T09:11:02.355Z,18.12
2022-08-03T09:13:33.150Z,17.86
2022-08-03T09:16:23.589Z,17.24
2022-08-03T09:18:54.555Z,17.03
2022-08-03T09:21:33.244Z,16.27
2022-08-03T09:24:06.218Z,16.83
2022-08-03T09:26:36.856Z,17.01
2022-08-03T09:29:14.955Z,16.53
2022-08-03T09:31:46.027Z,16.50
2022-08-03T09:34:16.926Z,16.71
2022-08-03T09:36:50.732Z,16.72
2022-08-03T09:39:19.836Z,16.61
2022-08-03T09:42:18.730Z,17.10
2022-08-03T09:44:52.958Z,17.41
2022-08-03T09:47:33.422Z,16.78
2022-08-03T09:50:07.034Z,16.59
2022-08-03T09:52:39.502Z,16.83
2022-08-03T09:55:23.668Z,16.62
2022-08-03T09:58:10.503Z,16.33
2022-08-03T10:01:00.255Z,16.55
2022-08-03T10:03:30.966Z,16.45
2022-08-03T10:05:59.965Z,16.17
2022-08-03T10:08:28.467Z,16.44
2022-08-03T10:10:58.843Z,16.29
2022-08-03T10:13:27.610Z,16.26
2022-08-03T10:16:23.398Z,16.05
2022-08-03T10:18:43.973Z,16.04
2022-08-03T10:21:16.873Z,15.43
2022-08-03T10:23:46.959Z,15.43
2022-08-03T10:26:22.781Z,15.52
2022-08-03T10:28:54.562Z,15.22
2022-08-03T10:31:24.433Z,15.42
2022-08-03T10:33:58.232Z,15.32
2022-08-03T10:36:30.806Z,15.25
2022-08-03T10:39:02.815Z,15.01
2022-08-03T10:41:46.620Z,14.45
2022-08-03T10:44:23.416Z,14.46
2022-08-03T10:46:52.947Z,14.32
2022-08-03T10:49:34.711Z,14.25
2022-08-03T10:52:10.439Z,14.16
2022-08-03T10:55:12.883Z,14.34
2022-08-03T10:57:48.767Z,14.28
2022-08-03T11:00:19.852Z,15.18
2022-08-03T11:03:17.811Z,16.12
2022-08-03T11:05:54.587Z,16.25
2022-08-03T11:08:32.689Z,16.58
2022-08-03T11:11:28.588Z,16.90
2022-08-03T11:14:04.995Z,17.50
2022-08-03T11:16:41.863Z,18.45
2022-08-03T11:19:12.999Z,18.60
2022-08-03T11:21:50.886Z,19.00
2022-08-03T11:24:37.266Z,18.93
2022-08-03T11:27:20.015Z,19.12
2022-08-03T11:30:17.730Z,19.47
2022-08-03T11:32:49.185Z,20.56
2022-08-03T11:35:18.687Z,20.85
2022-08-03T11:38:04.893Z,20.70
2022-08-03T11:40:53.467Z,21.87
2022-08-03T11:43:31.778Z,22.05
2022-08-03T11:46:06.116Z,21.98
2022-08-03T11:48:34.101Z,22.59
2022-08-03T11:51:04.057Z,22.79
2022-08-03T11:53:33.118Z,23.51
2022-08-03T11:56:13.035Z,23.49
2022-08-03T11:59:01.027Z,23.62
2022-08-03T12:01:37.744Z,24.51
2022-08-03T12:04:06.727Z,23.92
2022-08-03T12:06:54.797Z,24.09
2022-08-03T12:09:22.917Z,23.56
2022-08-03T12:11:59.699Z,23.52
2022-08-03T12:14:50.786Z,23.38
2022-08-03T12:17:19.505Z,23.04
2022-08-03T12:19:48.158Z,23.44
2022-08-03T12:22:17.239Z,23.77
2022-08-03T12:24:47.629Z,23.12
2022-08-03T12:27:26.610Z,23.39
2022-08-03T12:29:58.787Z,24.14
2022-08-03T12:32:29.725Z,24.73
2022-08-03T12:35:04.610Z,25.22
2022-08-03T12:37:33.187Z,24.83
2022-08-03T12:40:10.201Z,25.00
2022-08-03T12:42:40.691Z,25.49
2022-08-03T12:45:26.282Z,25.54
2022-08-03T12:48:03.758Z,25.61
2022-08-03T12:50:33.270Z,25.57
2022-08-03T12:53:08.001Z,25.35
2022-08-03T12:55:57.386Z,25.82
2022-08-03T12:58:38.792Z,25.90
2022-08-03T13:01:09.135Z,25.40
2022-08-03T13:03:50.501Z,25.61
2022-08-03T13:06:26.069Z,27.03
2022-08-03T13:09:12.521Z,27.19
2022-08-03T13:11:57.562Z,25.75
2022-08-03T13:14:28.765Z,26.35
2022-08-03T13:16:56.996Z,26.34
2022-08-03T13:19:25.130Z,26.11
2022-08-03T13:22:03.654Z,26.97
2022-08-03T13:24:33.801Z,26.78
2022-08-03T13:28:00.949Z,26.58
2022-08-03T13:29:53.089Z,26.07
2022-08-03T13:32:22.451Z,26.53
2022-08-03T13:34:50.702Z,26.02
2022-08-03T13:37:20.253Z,26.32
2022-08-03T13:39:58.768Z,26.46
2022-08-03T13:42:30.102Z,26.90
2022-08-03T13:44:59.108Z,26.68
2022-08-03T13:47:27.633Z,25.85
2022-08-03T13:50:00.345Z,25.78
2022-08-03T13:52:32.613Z,26.21
2022-08-03T13:55:01.709Z,26.64
2022-08-03T13:58:02.348Z,27.49
2022-08-03T14:00:27.025Z,27.63
2022-08-03T14:03:12.838Z,27.61
2022-08-03T14:05:43.666Z,27.55
2022-08-03T14:08:12.735Z,27.69
2022-08-03T14:10:43.428Z,29.16
2022-08-03T14:13:16.867Z,29.43
2022-08-03T14:15:50.230Z,29.57
2022-08-03T14:18:28.550Z,28.85
2022-08-03T14:21:06.772Z,28.86
2022-08-03T14:23:37.849Z,29.20
2022-08-03T14:26:07.748Z,29.20
2022-08-03T14:28:36.479Z,29.84
2022-08-03T14:31:08.205Z,29.50
2022-08-03T14:33:37.003Z,29.43
2022-08-03T14:36:05.782Z,30.05
2022-08-03T14:38:34.014Z,30.17
2022-08-03T14:41:02.273Z,29.73
2022-08-03T14:43:33.732Z,30.32
2022-08-03T14:46:02.760Z,30.93
2022-08-03T14:50:33.158Z,31.12
2022-08-03T14:51:19.533Z,30.97
2022-08-03T14:53:47.774Z,31.22
2022-08-03T14:56:16.308Z,30.49
2022-08-03T14:58:44.470Z,30.37
2022-08-03T15:02:02.579Z,29.82
2022-08-03T15:04:00.752Z,29.76
2022-08-03T15:06:28.955Z,30.03
2022-08-03T15:09:21.229Z,30.12
2022-08-03T15:11:45.561Z,29.59
2022-08-03T15:14:14.692Z,29.73
2022-08-03T15:16:43.340Z,29.85
2022-08-03T15:20:03.744Z,29.70
2022-08-03T15:22:01.027Z,29.72
2022-08-03T15:24:30.007Z,29.98
2022-08-03T15:26:58.722Z,30.41
2022-08-03T15:30:07.283Z,30.77
2022-08-03T15:32:15.494Z,30.31
2022-08-03T15:34:50.271Z,30.40
2022-08-03T15:37:20.924Z,30.86
2022-08-03T15:39:59.783Z,31.02
2022-08-03T15:42:30.369Z,30.85
2022-08-03T15:44:58.806Z,31.10
2022-08-03T15:47:27.325Z,31.15
2022-08-03T15:49:55.614Z,31.00
2022-08-03T15:52:23.770Z,30.98
2022-08-03T15:54:51.998Z,30.22
2022-08-03T15:57:20.574Z,29.71
2022-08-03T15:59:49.001Z,29.73
2022-08-03T16:02:17.227Z,29.93
2022-08-03T16:04:45.481Z,29.89
2022-08-03T16:07:16.049Z,29.99
2022-08-03T16:09:44.469Z,30.32
2022-08-03T16:12:16.086Z,30.19
2022-08-03T16:14:53.748Z,30.34
2022-08-03T16:17:23.704Z,30.65
2022-08-03T16:19:53.409Z,30.64
2022-08-03T16:22:25.031Z,30.68
2022-08-03T16:24:54.641Z,30.88
2022-08-03T16:27:37.076Z,31.32
2022-08-03T16:30:16.012Z,31.21
2022-08-03T16:32:45.616Z,31.30
2022-08-03T16:35:19.679Z,31.17
2022-08-03T16:37:50.751Z,31.26
2022-08-03T16:40:25.296Z,31.19
2022-08-03T16:42:54.362Z,31.43
2022-08-03T16:45:22.783Z,31.75
2022-08-03T16:48:01.593Z,31.57
2022-08-03T16:50:36.068Z,31.77
2022-08-03T16:53:09.303Z,31.69
2022-08-03T16:55:48.461Z,31.67
2022-08-03T16:58:34.412Z,31.88
2022-08-03T17:01:21.559Z,31.96
2022-08-03T17:04:03.218Z,32.31
2022-08-03T17:06:44.961Z,32.26
2022-08-03T17:09:17.992Z,32.08
2022-08-03T17:11:49.891Z,32.36
2022-08-03T17:14:28.474Z,32.50
2022-08-03T17:17:02.112Z,32.70
2022-08-03T17:19:32.788Z,32.82
2022-08-03T17:22:20.850Z,33.19
2022-08-03T17:24:52.220Z,33.17
2022-08-03T17:28:51.422Z,33.26
2022-08-03T17:30:19.044Z,33.64
2022-08-03T17:32:57.203Z,33.83
2022-08-03T17:35:34.435Z,34.08
2022-08-03T17:38:10.444Z,34.28
2022-08-03T17:40:52.087Z,34.37
2022-08-03T17:44:13.195Z,34.70
2022-08-03T17:46:10.787Z,34.88
2022-08-03T17:48:41.144Z,35.29
2022-08-03T17:51:23.032Z,35.26
2022-08-03T17:54:21.811Z,35.41
2022-08-03T17:57:21.853Z,35.82
2022-08-03T18:00:23.007Z,36.19
2022-08-03T18:03:20.941Z,36.51
2022-08-03T18:06:10.956Z,36.57
2022-08-03T18:08:50.240Z,37.22
2022-08-03T18:11:23.014Z,37.62
2022-08-03T18:14:17.926Z,37.92
2022-08-03T18:16:56.439Z,38.10
2022-08-03T18:20:02.903Z,38.46
2022-08-03T18:22:16.638Z,39.87
2022-08-03T18:24:48.658Z,40.36
2022-08-03T18:27:19.515Z,40.86
2022-08-03T18:29:52.177Z,41.38
2022-08-03T18:32:20.748Z,42.64
2022-08-03T18:34:58.243Z,43.15
2022-08-03T18:37:27.559Z,43.50
2022-08-03T18:39:58.508Z,43.78
2022-08-03T18:42:28.528Z,44.57
2022-08-03T18:45:55.245Z,44.65
2022-08-03T18:48:12.077Z,45.48
2022-08-03T18:50:53.837Z,45.32
2022-08-03T18:54:03.049Z,46.33
2022-08-03T18:56:53.168Z,46.74
2022-08-03T18:59:43.112Z,46.98
2022-08-03T19:02:32.989Z,47.37
2022-08-03T19:05:08.343Z,48.21
2022-08-03T19:07:38.410Z,48.61
2022-08-03T19:10:10.835Z,48.68
2022-08-03T19:12:56.442Z,49.32
2022-08-03T19:15:36.768Z,50.48
2022-08-03T19:18:12.134Z,50.42
2022-08-03T19:20:46.774Z,51.16
2022-08-03T19:23:18.241Z,51.08
2022-08-03T19:25:46.554Z,51.86
2022-08-03T19:28:17.297Z,51.56
2022-08-03T19:30:53.252Z,52.29
2022-08-03T19:33:25.817Z,51.86
2022-08-03T19:35:58.386Z,52.26
2022-08-03T19:38:29.830Z,52.52
2022-08-03T19:41:03.249Z,52.50
2022-08-03T19:43:49.499Z,52.40
2022-08-03T19:46:30.542Z,53.00
2022-08-03T19:49:14.960Z,52.81
2022-08-03T19:54:54.019Z,53.23
2022-08-03T19:57:25.451Z,54.61
2022-08-03T19:59:56.739Z,54.94
2022-08-03T20:02:26.172Z,55.06
2022-08-03T20:04:57.214Z,55.54
2022-08-03T20:07:27.186Z,55.84
2022-08-03T20:09:56.625Z,56.51
2022-08-03T20:12:28.896Z,56.69
2022-08-03T20:14:58.207Z,56.81
2022-08-03T20:17:55.229Z,57.43
2022-08-03T20:20:21.773Z,57.55
2022-08-03T20:22:57.733Z,58.26
2022-08-03T20:28:33.454Z,59.15
2022-08-03T20:31:02.096Z,59.28
2022-08-03T20:33:46.372Z,59.29
2022-08-03T20:36:18.789Z,58.86
2022-08-03T20:38:48.491Z,59.25
2022-08-03T20:41:17.921Z,59.21
2022-08-03T20:43:49.215Z,59.80
2022-08-03T20:46:36.021Z,60.13
2022-08-03T20:49:08.683Z,59.92
2022-08-03T20:51:50.678Z,60.22
2022-08-03T20:54:30.918Z,61.33
2022-08-03T20:57:03.601Z,61.47
2022-08-03T20:59:50.501Z,61.74
2022-08-03T21:02:29.454Z,61.83
2022-08-03T21:05:08.442Z,61.74
2022-08-03T21:08:05.349Z,62.55
2022-08-03T21:10:39.842Z,62.44
2022-08-03T21:13:08.996Z,53.24
2022-08-03T21:13:12.580Z,58.77
2022-08-03T21:16:06.139Z,62.10
2022-08-03T21:18:45.256Z,62.19
2022-08-03T21:21:15.907Z,62.58
2022-08-03T21:23:48.656Z,62.57
2022-08-03T21:26:23.984Z,62.45
2022-08-03T21:28:56.484Z,62.65
2022-08-03T21:31:26.436Z,62.63
2022-08-03T21:34:03.914Z,62.25
2022-08-03T21:36:35.322Z,62.13
2022-08-03T21:39:07.572Z,62.18
2022-08-03T21:41:37.509Z,62.59
2022-08-03T21:44:07.067Z,62.50
2022-08-03T21:46:41.280Z,62.58
2022-08-03T21:50:04.749Z,62.25
2022-08-03T21:52:00.983Z,62.06
2022-08-03T21:54:35.598Z,61.83
2022-08-03T21:57:09.097Z,61.50
2022-08-03T21:59:39.047Z,61.54
2022-08-03T22:02:13.862Z,60.99
2022-08-03T22:04:56.952Z,60.73
2022-08-03T22:07:28.562Z,60.89
2022-08-03T22:09:59.504Z,60.59
2022-08-03T22:12:30.098Z,60.26
2022-08-03T22:15:02.010Z,59.76
2022-08-03T22:17:54.849Z,59.60
2022-08-03T22:20:21.907Z,59.45
2022-08-03T22:22:55.309Z,59.04
2022-08-03T22:25:29.309Z,59.35
2022-08-03T22:28:07.191Z,59.42
2022-08-03T22:30:36.442Z,59.16
2022-08-03T22:33:11.224Z,58.48
2022-08-03T22:35:47.417Z,58.64
2022-08-03T22:38:18.124Z,58.30
2022-08-03T22:40:49.063Z,58.88
2022-08-03T22:43:17.434Z,58.78
2022-08-03T22:46:09.681Z,58.64
2022-08-03T22:48:40.688Z,58.71
2022-08-03T22:51:10.499Z,58.93
2022-08-03T22:53:39.635Z,59.20
2022-08-03T22:56:08.950Z,59.13
2022-08-03T22:58:37.291Z,59.60
2022-08-03T23:01:11.772Z,60.11
2022-08-03T23:04:00.415Z,60.82
2022-08-03T23:06:40.808Z,61.65
2022-08-03T23:09:13.171Z,62.18
2022-08-03T23:11:45.980Z,63.15
2022-08-03T23:14:16.959Z,63.12
2022-08-03T23:16:47.402Z,63.06
2022-08-03T23:19:25.392Z,63.52
2022-08-03T23:22:02.644Z,63.72
2022-08-03T23:24:36.237Z,63.92
2022-08-03T23:27:06.016Z,63.87
2022-08-03T23:29:36.451Z,64.04
2022-08-03T23:32:06.035Z,64.03
2022-08-03T23:34:53.319Z,63.98
2022-08-03T23:37:21.982Z,64.76
2022-08-03T23:39:51.593Z,64.79
2022-08-03T23:42:21.747Z,64.86
2022-08-03T23:44:54.853Z,65.30
2022-08-03T23:47:23.815Z,64.96
2022-08-03T23:49:53.718Z,65.09
2022-08-03T23:52:38.145Z,65.02
2022-08-03T23:55:24.888Z,65.03
2022-08-03T23:58:29.983Z,65.11
